sensor_id;sensor_type;location;lat;lon;timestamp;temperature;humidity
5938;DHT22;2994;51.220;4.412;2023-07-13T00:01:34;21.02;54.49
5938;DHT22;2994;51.220;4.412;2023-07-13T00:04:01;20.98;54.71
5938;DHT22;2994;51.220;4.412;2023-07-13T00:06:26;20.98;54.72
5938;DHT22;2994;51.220;4.412;2023-07-13T00:08:58;21.00;54.60
5938;DHT22;2994;51.220;4.412;2023-07-13T00:11:24;20.99;54.65
5938;DHT22;2994;51.220;4.412;2023-07-13T00:13:50;20.95;54.97
5938;DHT22;2994;51.220;4.412;2023-07-13T00:16:16;20.94;55.04
5938;DHT22;2994;51.220;4.412;2023-07-13T00:18:44;20.90;55.30
5938;DHT22;2994;51.220;4.412;2023-07-13T00:21:09;20.90;55.29
5938;DHT22;2994;51.220;4.412;2023-07-13T00:23:36;20.89;55.48
5938;DHT22;2994;51.220;4.412;2023-07-13T00:26:07;20.81;55.80
5938;DHT22;2994;51.220;4.412;2023-07-13T00:28:33;20.78;56.14
5938;DHT22;2994;51.220;4.412;2023-07-13T00:30:59;20.49;57.16
5938;DHT22;2994;51.220;4.412;2023-07-13T00:33:27;20.66;56.44
5938;DHT22;2994;51.220;4.412;2023-07-13T00:35:54;20.71;56.36
5938;DHT22;2994;51.220;4.412;2023-07-13T00:38:20;20.73;56.28
5938;DHT22;2994;51.220;4.412;2023-07-13T00:40:45;20.76;56.19
5938;DHT22;2994;51.220;4.412;2023-07-13T00:43:17;20.79;56.18
5938;DHT22;2994;51.220;4.412;2023-07-13T00:48:09;20.71;56.91
5938;DHT22;2994;51.220;4.412;2023-07-13T00:50:35;20.73;56.76
5938;DHT22;2994;51.220;4.412;2023-07-13T00:53:01;20.69;57.05
5938;DHT22;2994;51.220;4.412;2023-07-13T00:55:26;20.45;58.19
5938;DHT22;2994;51.220;4.412;2023-07-13T00:57:52;20.60;57.72
5938;DHT22;2994;51.220;4.412;2023-07-13T01:00:19;20.62;57.66
5938;DHT22;2994;51.220;4.412;2023-07-13T01:02:46;20.54;58.00
5938;DHT22;2994;51.220;4.412;2023-07-13T01:05:15;20.57;57.88
5938;DHT22;2994;51.220;4.412;2023-07-13T01:07:42;20.55;57.90
5938;DHT22;2994;51.220;4.412;2023-07-13T01:10:09;20.55;58.04
5938;DHT22;2994;51.220;4.412;2023-07-13T01:12:35;20.56;58.01
5938;DHT22;2994;51.220;4.412;2023-07-13T01:15:01;20.50;58.32
5938;DHT22;2994;51.220;4.412;2023-07-13T01:17:28;20.54;58.19
5938;DHT22;2994;51.220;4.412;2023-07-13T01:19:54;20.51;58.32
5938;DHT22;2994;51.220;4.412;2023-07-13T01:22:20;20.48;58.51
5938;DHT22;2994;51.220;4.412;2023-07-13T01:24:50;20.48;58.52
5938;DHT22;2994;51.220;4.412;2023-07-13T01:27:21;20.44;58.81
5938;DHT22;2994;51.220;4.412;2023-07-13T01:29:47;20.39;58.83
5938;DHT22;2994;51.220;4.412;2023-07-13T01:32:18;20.40;58.80
5938;DHT22;2994;51.220;4.412;2023-07-13T01:34:50;20.36;58.92
5938;DHT22;2994;51.220;4.412;2023-07-13T01:37:15;20.29;59.32
5938;DHT22;2994;51.220;4.412;2023-07-13T01:39:40;20.29;59.28
5938;DHT22;2994;51.220;4.412;2023-07-13T01:42:06;20.30;59.22
5938;DHT22;2994;51.220;4.412;2023-07-13T01:44:32;20.29;59.31
5938;DHT22;2994;51.220;4.412;2023-07-13T01:46:58;20.26;59.57
5938;DHT22;2994;51.220;4.412;2023-07-13T01:49:24;20.22;59.73
5938;DHT22;2994;51.220;4.412;2023-07-13T01:51:49;20.20;59.90
5938;DHT22;2994;51.220;4.412;2023-07-13T01:54:15;20.25;59.71
5938;DHT22;2994;51.220;4.412;2023-07-13T01:56:40;20.27;59.66
5938;DHT22;2994;51.220;4.412;2023-07-13T01:59:07;20.26;59.64
5938;DHT22;2994;51.220;4.412;2023-07-13T02:01:33;20.19;60.06
5938;DHT22;2994;51.220;4.412;2023-07-13T02:03:58;20.22;59.84
5938;DHT22;2994;51.220;4.412;2023-07-13T02:06:24;20.24;59.90
5938;DHT22;2994;51.220;4.412;2023-07-13T02:08:49;20.25;59.95
5938;DHT22;2994;51.220;4.412;2023-07-13T02:11:14;20.26;59.98
5938;DHT22;2994;51.220;4.412;2023-07-13T02:13:40;20.25;60.12
5938;DHT22;2994;51.220;4.412;2023-07-13T02:16:06;20.21;60.36
5938;DHT22;2994;51.220;4.412;2023-07-13T02:18:31;20.19;60.50
5938;DHT22;2994;51.220;4.412;2023-07-13T02:20:57;20.21;60.36
5938;DHT22;2994;51.220;4.412;2023-07-13T02:23:22;20.19;60.67
5938;DHT22;2994;51.220;4.412;2023-07-13T02:25:48;20.18;60.68
5938;DHT22;2994;51.220;4.412;2023-07-13T02:28:14;20.16;60.71
5938;DHT22;2994;51.220;4.412;2023-07-13T02:30:39;20.14;60.80
5938;DHT22;2994;51.220;4.412;2023-07-13T02:33:05;20.02;61.45
5938;DHT22;2994;51.220;4.412;2023-07-13T02:35:31;20.10;61.10
5938;DHT22;2994;51.220;4.412;2023-07-13T02:37:56;20.07;61.10
5938;DHT22;2994;51.220;4.412;2023-07-13T02:40:22;20.09;61.09
5938;DHT22;2994;51.220;4.412;2023-07-13T02:42:47;20.09;61.17
5938;DHT22;2994;51.220;4.412;2023-07-13T02:45:13;20.06;61.33
5938;DHT22;2994;51.220;4.412;2023-07-13T02:47:41;20.07;61.12
5938;DHT22;2994;51.220;4.412;2023-07-13T02:50:07;20.04;61.47
5938;DHT22;2994;51.220;4.412;2023-07-13T02:52:32;20.09;61.17
5938;DHT22;2994;51.220;4.412;2023-07-13T02:54:58;20.07;61.21
5938;DHT22;2994;51.220;4.412;2023-07-13T02:57:23;20.06;61.31
5938;DHT22;2994;51.220;4.412;2023-07-13T02:59:49;19.99;61.77
5938;DHT22;2994;51.220;4.412;2023-07-13T03:02:15;19.98;61.77
5938;DHT22;2994;51.220;4.412;2023-07-13T03:04:40;19.98;61.67
5938;DHT22;2994;51.220;4.412;2023-07-13T03:07:06;20.02;61.60
5938;DHT22;2994;51.220;4.412;2023-07-13T03:09:33;20.02;61.76
5938;DHT22;2994;51.220;4.412;2023-07-13T03:11:59;19.98;61.95
5938;DHT22;2994;51.220;4.412;2023-07-13T03:14:25;19.97;61.87
5938;DHT22;2994;51.220;4.412;2023-07-13T03:16:50;19.97;61.99
5938;DHT22;2994;51.220;4.412;2023-07-13T03:19:17;19.94;62.26
5938;DHT22;2994;51.220;4.412;2023-07-13T03:21:42;19.91;62.39
5938;DHT22;2994;51.220;4.412;2023-07-13T03:24:08;19.88;62.53
5938;DHT22;2994;51.220;4.412;2023-07-13T03:26:33;19.90;62.37
5938;DHT22;2994;51.220;4.412;2023-07-13T03:28:59;19.96;62.30
5938;DHT22;2994;51.220;4.412;2023-07-13T03:31:27;19.96;62.48
5938;DHT22;2994;51.220;4.412;2023-07-13T03:33:54;19.98;62.47
5938;DHT22;2994;51.220;4.412;2023-07-13T03:36:24;19.99;62.58
5938;DHT22;2994;51.220;4.412;2023-07-13T03:38:53;19.99;62.73
5938;DHT22;2994;51.220;4.412;2023-07-13T03:41:20;19.96;62.92
5938;DHT22;2994;51.220;4.412;2023-07-13T03:43:46;19.92;63.15
5938;DHT22;2994;51.220;4.412;2023-07-13T03:46:13;19.91;63.31
5938;DHT22;2994;51.220;4.412;2023-07-13T03:48:39;19.94;63.11
5938;DHT22;2994;51.220;4.412;2023-07-13T03:51:06;19.92;63.37
5938;DHT22;2994;51.220;4.412;2023-07-13T03:53:31;19.94;63.27
5938;DHT22;2994;51.220;4.412;2023-07-13T03:55:57;19.96;63.21
5938;DHT22;2994;51.220;4.412;2023-07-13T03:58:28;19.87;63.69
5938;DHT22;2994;51.220;4.412;2023-07-13T04:00:54;19.89;63.50
5938;DHT22;2994;51.220;4.412;2023-07-13T04:03:20;19.84;63.92
5938;DHT22;2994;51.220;4.412;2023-07-13T04:05:46;19.88;63.75
5938;DHT22;2994;51.220;4.412;2023-07-13T04:08:12;19.86;64.01
5938;DHT22;2994;51.220;4.412;2023-07-13T04:10:37;19.89;63.76
5938;DHT22;2994;51.220;4.412;2023-07-13T04:13:04;19.85;64.12
5938;DHT22;2994;51.220;4.412;2023-07-13T04:15:31;19.86;64.16
5938;DHT22;2994;51.220;4.412;2023-07-13T04:17:56;19.89;64.03
5938;DHT22;2994;51.220;4.412;2023-07-13T04:20:22;19.92;63.95
5938;DHT22;2994;51.220;4.412;2023-07-13T04:22:49;19.91;64.05
5938;DHT22;2994;51.220;4.412;2023-07-13T04:25:14;19.92;63.92
5938;DHT22;2994;51.220;4.412;2023-07-13T04:27:40;19.94;63.95
5938;DHT22;2994;51.220;4.412;2023-07-13T04:30:06;19.99;63.69
5938;DHT22;2994;51.220;4.412;2023-07-13T04:32:32;20.00;63.65
5938;DHT22;2994;51.220;4.412;2023-07-13T04:34:58;20.03;63.60
5938;DHT22;2994;51.220;4.412;2023-07-13T04:37:25;20.00;63.83
5938;DHT22;2994;51.220;4.412;2023-07-13T04:39:50;19.96;63.93
5938;DHT22;2994;51.220;4.412;2023-07-13T04:42:16;20.00;63.64
5938;DHT22;2994;51.220;4.412;2023-07-13T04:44:41;19.97;63.71
5938;DHT22;2994;51.220;4.412;2023-07-13T04:47:07;19.97;63.73
5938;DHT22;2994;51.220;4.412;2023-07-13T04:49:32;19.99;63.64
5938;DHT22;2994;51.220;4.412;2023-07-13T04:51:58;20.00;63.58
5938;DHT22;2994;51.220;4.412;2023-07-13T04:54:23;20.02;63.43
5938;DHT22;2994;51.220;4.412;2023-07-13T04:56:49;20.04;63.46
5938;DHT22;2994;51.220;4.412;2023-07-13T04:59:14;20.02;63.60
5938;DHT22;2994;51.220;4.412;2023-07-13T05:01:39;20.00;63.70
5938;DHT22;2994;51.220;4.412;2023-07-13T05:04:06;20.03;63.50
5938;DHT22;2994;51.220;4.412;2023-07-13T05:06:31;20.11;63.27
5938;DHT22;2994;51.220;4.412;2023-07-13T05:08:57;20.13;63.26
5938;DHT22;2994;51.220;4.412;2023-07-13T05:11:23;20.12;63.33
5938;DHT22;2994;51.220;4.412;2023-07-13T05:13:48;20.17;62.92
5938;DHT22;2994;51.220;4.412;2023-07-13T05:16:14;20.19;62.85
5938;DHT22;2994;51.220;4.412;2023-07-13T05:18:39;20.25;62.82
5938;DHT22;2994;51.220;4.412;2023-07-13T05:21:07;20.24;62.95
5938;DHT22;2994;51.220;4.412;2023-07-13T05:23:34;20.25;62.88
5938;DHT22;2994;51.220;4.412;2023-07-13T05:26:01;20.27;62.86
5938;DHT22;2994;51.220;4.412;2023-07-13T05:28:27;20.17;63.30
5938;DHT22;2994;51.220;4.412;2023-07-13T05:30:53;20.17;63.14
5938;DHT22;2994;51.220;4.412;2023-07-13T05:33:20;20.18;63.09
5938;DHT22;2994;51.220;4.412;2023-07-13T05:35:46;20.17;63.18
5938;DHT22;2994;51.220;4.412;2023-07-13T05:38:11;20.14;63.32
5938;DHT22;2994;51.220;4.412;2023-07-13T05:40:37;20.15;63.20
5938;DHT22;2994;51.220;4.412;2023-07-13T05:43:03;20.18;63.21
5938;DHT22;2994;51.220;4.412;2023-07-13T05:45:28;20.17;63.19
5938;DHT22;2994;51.220;4.412;2023-07-13T05:47:54;20.19;63.17
5938;DHT22;2994;51.220;4.412;2023-07-13T05:50:19;20.18;63.30
5938;DHT22;2994;51.220;4.412;2023-07-13T05:52:44;20.21;63.22
5938;DHT22;2994;51.220;4.412;2023-07-13T05:55:10;20.26;63.12
5938;DHT22;2994;51.220;4.412;2023-07-13T05:57:35;20.28;63.17
5938;DHT22;2994;51.220;4.412;2023-07-13T06:00:01;20.26;63.30
5938;DHT22;2994;51.220;4.412;2023-07-13T06:02:27;20.26;63.27
5938;DHT22;2994;51.220;4.412;2023-07-13T06:04:53;20.29;63.18
5938;DHT22;2994;51.220;4.412;2023-07-13T06:07:18;20.28;63.32
5938;DHT22;2994;51.220;4.412;2023-07-13T06:09:43;20.22;63.54
5938;DHT22;2994;51.220;4.412;2023-07-13T06:12:09;20.10;64.11
5938;DHT22;2994;51.220;4.412;2023-07-13T06:14:35;20.26;63.53
5938;DHT22;2994;51.220;4.412;2023-07-13T06:17:00;20.18;64.01
5938;DHT22;2994;51.220;4.412;2023-07-13T06:19:25;20.28;63.52
5938;DHT22;2994;51.220;4.412;2023-07-13T06:21:51;20.35;63.38
5938;DHT22;2994;51.220;4.412;2023-07-13T06:24:16;20.40;63.28
5938;DHT22;2994;51.220;4.412;2023-07-13T06:26:42;20.43;63.16
5938;DHT22;2994;51.220;4.412;2023-07-13T06:29:07;20.41;63.33
5938;DHT22;2994;51.220;4.412;2023-07-13T06:31:33;20.43;63.21
5938;DHT22;2994;51.220;4.412;2023-07-13T06:33:58;20.47;63.07
5938;DHT22;2994;51.220;4.412;2023-07-13T06:36:24;20.50;63.01
5938;DHT22;2994;51.220;4.412;2023-07-13T06:38:49;20.51;62.98
5938;DHT22;2994;51.220;4.412;2023-07-13T06:41:15;20.48;63.14
5938;DHT22;2994;51.220;4.412;2023-07-13T06:43:40;20.55;62.91
5938;DHT22;2994;51.220;4.412;2023-07-13T06:46:06;20.57;62.86
5938;DHT22;2994;51.220;4.412;2023-07-13T06:48:31;20.61;62.82
5938;DHT22;2994;51.220;4.412;2023-07-13T06:50:57;20.48;63.44
5938;DHT22;2994;51.220;4.412;2023-07-13T06:53:23;20.51;63.34
5938;DHT22;2994;51.220;4.412;2023-07-13T06:55:48;20.62;63.01
5938;DHT22;2994;51.220;4.412;2023-07-13T06:58:16;20.72;62.82
5938;DHT22;2994;51.220;4.412;2023-07-13T07:00:42;20.81;62.50
5938;DHT22;2994;51.220;4.412;2023-07-13T07:03:07;20.88;62.17
5938;DHT22;2994;51.220;4.412;2023-07-13T07:05:33;20.90;62.23
5938;DHT22;2994;51.220;4.412;2023-07-13T07:07:59;20.93;62.15
5938;DHT22;2994;51.220;4.412;2023-07-13T07:10:25;20.90;62.13
5938;DHT22;2994;51.220;4.412;2023-07-13T07:12:50;20.90;62.21
5938;DHT22;2994;51.220;4.412;2023-07-13T07:15:17;20.91;62.15
5938;DHT22;2994;51.220;4.412;2023-07-13T07:17:43;21.02;61.90
5938;DHT22;2994;51.220;4.412;2023-07-13T07:20:09;21.02;62.12
5938;DHT22;2994;51.220;4.412;2023-07-13T07:22:35;21.15;61.79
5938;DHT22;2994;51.220;4.412;2023-07-13T07:25:00;21.22;61.54
5938;DHT22;2994;51.220;4.412;2023-07-13T07:27:26;21.24;61.41
5938;DHT22;2994;51.220;4.412;2023-07-13T07:29:51;21.25;61.36
5938;DHT22;2994;51.220;4.412;2023-07-13T07:32:19;21.30;61.34
5938;DHT22;2994;51.220;4.412;2023-07-13T07:34:44;21.23;61.52
5938;DHT22;2994;51.220;4.412;2023-07-13T07:37:11;21.21;61.64
5938;DHT22;2994;51.220;4.412;2023-07-13T07:39:37;21.19;61.71
5938;DHT22;2994;51.220;4.412;2023-07-13T07:42:03;21.32;61.38
5938;DHT22;2994;51.220;4.412;2023-07-13T07:44:30;21.28;61.69
5938;DHT22;2994;51.220;4.412;2023-07-13T07:46:55;21.35;61.37
5938;DHT22;2994;51.220;4.412;2023-07-13T07:49:21;21.35;61.31
5938;DHT22;2994;51.220;4.412;2023-07-13T07:51:46;21.15;62.20
5938;DHT22;2994;51.220;4.412;2023-07-13T07:54:12;21.42;61.12
5938;DHT22;2994;51.220;4.412;2023-07-13T07:56:38;21.55;60.73
5938;DHT22;2994;51.220;4.412;2023-07-13T07:59:03;21.44;61.10
5938;DHT22;2994;51.220;4.412;2023-07-13T08:01:29;21.45;60.62
5938;DHT22;2994;51.220;4.412;2023-07-13T08:03:54;21.63;59.98
5938;DHT22;2994;51.220;4.412;2023-07-13T08:06:19;21.78;59.55
5938;DHT22;2994;51.220;4.412;2023-07-13T08:08:45;21.82;59.19
5938;DHT22;2994;51.220;4.412;2023-07-13T08:11:11;21.91;58.78
5938;DHT22;2994;51.220;4.412;2023-07-13T08:13:37;21.85;58.77
5938;DHT22;2994;51.220;4.412;2023-07-13T08:16:04;22.01;58.35
5938;DHT22;2994;51.220;4.412;2023-07-13T08:18:30;22.12;58.10
5938;DHT22;2994;51.220;4.412;2023-07-13T08:20:56;22.16;58.00
5938;DHT22;2994;51.220;4.412;2023-07-13T08:23:22;22.21;57.84
5938;DHT22;2994;51.220;4.412;2023-07-13T08:25:54;22.25;57.64
5938;DHT22;2994;51.220;4.412;2023-07-13T08:28:22;22.41;57.24
5938;DHT22;2994;51.220;4.412;2023-07-13T08:30:48;22.32;57.24
5938;DHT22;2994;51.220;4.412;2023-07-13T08:33:20;22.31;57.18
5938;DHT22;2994;51.220;4.412;2023-07-13T08:35:50;22.23;57.45
5938;DHT22;2994;51.220;4.412;2023-07-13T08:38:17;22.14;57.67
5938;DHT22;2994;51.220;4.412;2023-07-13T08:40:43;22.35;57.10
5938;DHT22;2994;51.220;4.412;2023-07-13T08:43:15;22.47;56.55
5938;DHT22;2994;51.220;4.412;2023-07-13T08:45:48;22.60;56.40
5938;DHT22;2994;51.220;4.412;2023-07-13T08:48:20;22.70;56.00
5938;DHT22;2994;51.220;4.412;2023-07-13T08:51:04;22.79;55.76
5938;DHT22;2994;51.220;4.412;2023-07-13T08:53:48;22.86;55.60
5938;DHT22;2994;51.220;4.412;2023-07-13T08:56:28;22.60;55.79
5938;DHT22;2994;51.220;4.412;2023-07-13T08:59:20;22.87;55.24
5938;DHT22;2994;51.220;4.412;2023-07-13T09:02:07;23.15;54.27
5938;DHT22;2994;51.220;4.412;2023-07-13T09:04:39;23.29;54.02
5938;DHT22;2994;51.220;4.412;2023-07-13T09:12:19;23.15;54.66
5938;DHT22;2994;51.220;4.412;2023-07-13T09:14:53;23.34;54.13
5938;DHT22;2994;51.220;4.412;2023-07-13T09:17:25;23.49;53.72
5938;DHT22;2994;51.220;4.412;2023-07-13T09:19:58;23.24;54.13
5938;DHT22;2994;51.220;4.412;2023-07-13T09:22:27;22.96;54.42
5938;DHT22;2994;51.220;4.412;2023-07-13T09:25:00;23.02;54.59
5938;DHT22;2994;51.220;4.412;2023-07-13T09:27:34;22.97;54.49
5938;DHT22;2994;51.220;4.412;2023-07-13T09:32:41;22.86;54.31
5938;DHT22;2994;51.220;4.412;2023-07-13T09:35:12;22.81;54.67
5938;DHT22;2994;51.220;4.412;2023-07-13T09:37:43;23.21;54.26
5938;DHT22;2994;51.220;4.412;2023-07-13T09:40:27;23.29;54.04
5938;DHT22;2994;51.220;4.412;2023-07-13T09:42:54;23.03;54.40
5938;DHT22;2994;51.220;4.412;2023-07-13T09:45:30;23.13;54.07
5938;DHT22;2994;51.220;4.412;2023-07-13T09:47:59;23.11;53.64
5938;DHT22;2994;51.220;4.412;2023-07-13T09:50:28;23.07;53.05
5938;DHT22;2994;51.220;4.412;2023-07-13T09:52:54;22.98;53.10
5938;DHT22;2994;51.220;4.412;2023-07-13T09:55:38;22.99;53.19
5938;DHT22;2994;51.220;4.412;2023-07-13T09:58:14;22.98;53.03
5938;DHT22;2994;51.220;4.412;2023-07-13T10:00:41;23.20;52.45
5938;DHT22;2994;51.220;4.412;2023-07-13T10:03:24;23.36;51.56
5938;DHT22;2994;51.220;4.412;2023-07-13T10:05:52;23.53;50.94
5938;DHT22;2994;51.220;4.412;2023-07-13T10:10:46;23.89;49.47
5938;DHT22;2994;51.220;4.412;2023-07-13T10:13:25;24.01;48.76
5938;DHT22;2994;51.220;4.412;2023-07-13T10:15:52;24.17;47.86
5938;DHT22;2994;51.220;4.412;2023-07-13T10:18:18;24.26;47.32
5938;DHT22;2994;51.220;4.412;2023-07-13T10:20:45;24.30;47.47
5938;DHT22;2994;51.220;4.412;2023-07-13T10:23:15;24.39;47.38
5938;DHT22;2994;51.220;4.412;2023-07-13T10:25:46;24.54;46.75
5938;DHT22;2994;51.220;4.412;2023-07-13T10:28:35;24.76;46.28
5938;DHT22;2994;51.220;4.412;2023-07-13T10:31:02;24.79;45.38
5938;DHT22;2994;51.220;4.412;2023-07-13T10:33:30;24.92;44.61
5938;DHT22;2994;51.220;4.412;2023-07-13T10:36:13;25.04;44.46
5938;DHT22;2994;51.220;4.412;2023-07-13T10:38:40;24.90;44.80
5938;DHT22;2994;51.220;4.412;2023-07-13T10:41:12;24.69;44.31
5938;DHT22;2994;51.220;4.412;2023-07-13T10:43:43;24.31;44.72
5938;DHT22;2994;51.220;4.412;2023-07-13T10:46:21;24.54;43.74
5938;DHT22;2994;51.220;4.412;2023-07-13T10:48:50;24.66;43.74
5938;DHT22;2994;51.220;4.412;2023-07-13T10:51:18;24.87;43.15
5938;DHT22;2994;51.220;4.412;2023-07-13T10:53:47;24.08;44.75
5938;DHT22;2994;51.220;4.412;2023-07-13T10:56:30;24.27;45.38
5938;DHT22;2994;51.220;4.412;2023-07-13T10:59:11;24.93;44.37
5938;DHT22;2994;51.220;4.412;2023-07-13T11:01:49;24.99;43.71
5938;DHT22;2994;51.220;4.412;2023-07-13T11:04:15;24.61;43.24
5938;DHT22;2994;51.220;4.412;2023-07-13T11:06:42;24.71;44.13
5938;DHT22;2994;51.220;4.412;2023-07-13T11:12:26;24.59;43.89
5938;DHT22;2994;51.220;4.412;2023-07-13T11:17:46;24.40;42.86
5938;DHT22;2994;51.220;4.412;2023-07-13T11:25:38;23.70;46.38
5938;DHT22;2994;51.220;4.412;2023-07-13T11:35:34;21.84;65.65
5938;DHT22;2994;51.220;4.412;2023-07-13T11:38:02;21.67;65.96
5938;DHT22;2994;51.220;4.412;2023-07-13T11:40:30;21.21;67.42
5938;DHT22;2994;51.220;4.412;2023-07-13T11:43:00;21.29;67.68
5938;DHT22;2994;51.220;4.412;2023-07-13T11:45:26;20.99;67.94
5938;DHT22;2994;51.220;4.412;2023-07-13T11:47:54;20.81;68.10
5938;DHT22;2994;51.220;4.412;2023-07-13T11:50:24;20.77;68.85
5938;DHT22;2994;51.220;4.412;2023-07-13T11:52:50;20.99;66.61
5938;DHT22;2994;51.220;4.412;2023-07-13T11:55:20;21.01;67.44
5938;DHT22;2994;51.220;4.412;2023-07-13T11:57:56;20.88;68.13
5938;DHT22;2994;51.220;4.412;2023-07-13T12:00:27;20.99;68.10
5938;DHT22;2994;51.220;4.412;2023-07-13T12:02:56;21.23;67.55
5938;DHT22;2994;51.220;4.412;2023-07-13T12:05:22;20.46;71.04
5938;DHT22;2994;51.220;4.412;2023-07-13T12:07:49;20.61;70.12
5938;DHT22;2994;51.220;4.412;2023-07-13T12:10:26;20.72;70.46
5938;DHT22;2994;51.220;4.412;2023-07-13T12:13:00;20.83;69.96
5938;DHT22;2994;51.220;4.412;2023-07-13T12:15:45;21.28;67.75
5938;DHT22;2994;51.220;4.412;2023-07-13T12:18:23;21.40;68.52
5938;DHT22;2994;51.220;4.412;2023-07-13T12:20:50;21.36;66.74
5938;DHT22;2994;51.220;4.412;2023-07-13T12:23:28;21.49;65.80
5938;DHT22;2994;51.220;4.412;2023-07-13T12:25:54;21.63;65.39
5938;DHT22;2994;51.220;4.412;2023-07-13T12:28:22;21.05;66.84
5938;DHT22;2994;51.220;4.412;2023-07-13T12:30:58;21.24;66.97
5938;DHT22;2994;51.220;4.412;2023-07-13T12:33:27;21.53;66.32
5938;DHT22;2994;51.220;4.412;2023-07-13T12:35:53;21.72;65.90
5938;DHT22;2994;51.220;4.412;2023-07-13T12:38:19;21.87;65.65
5938;DHT22;2994;51.220;4.412;2023-07-13T12:40:49;21.96;64.49
5938;DHT22;2994;51.220;4.412;2023-07-13T12:43:16;21.97;64.17
5938;DHT22;2994;51.220;4.412;2023-07-13T12:46:02;21.85;63.66
5938;DHT22;2994;51.220;4.412;2023-07-13T12:48:28;21.99;63.83
5938;DHT22;2994;51.220;4.412;2023-07-13T12:50:55;22.04;63.60
5938;DHT22;2994;51.220;4.412;2023-07-13T12:53:23;22.17;63.23
5938;DHT22;2994;51.220;4.412;2023-07-13T12:55:55;22.25;62.07
5938;DHT22;2994;51.220;4.412;2023-07-13T13:00:58;22.48;60.76
5938;DHT22;2994;51.220;4.412;2023-07-13T13:03:32;22.56;60.47
5938;DHT22;2994;51.220;4.412;2023-07-13T13:08:45;22.75;59.97
5938;DHT22;2994;51.220;4.412;2023-07-13T13:11:10;22.82;59.88
5938;DHT22;2994;51.220;4.412;2023-07-13T13:13:36;22.93;59.86
5938;DHT22;2994;51.220;4.412;2023-07-13T13:16:12;23.00;58.97
5938;DHT22;2994;51.220;4.412;2023-07-13T13:18:39;23.21;58.33
5938;DHT22;2994;51.220;4.412;2023-07-13T13:21:05;23.56;57.53
5938;DHT22;2994;51.220;4.412;2023-07-13T13:23:30;23.74;56.91
5938;DHT22;2994;51.220;4.412;2023-07-13T13:25:56;23.95;56.45
5938;DHT22;2994;51.220;4.412;2023-07-13T13:28:21;23.92;56.60
5938;DHT22;2994;51.220;4.412;2023-07-13T13:30:49;23.91;57.72
5938;DHT22;2994;51.220;4.412;2023-07-13T13:33:17;23.87;56.75
5938;DHT22;2994;51.220;4.412;2023-07-13T13:35:43;24.01;56.45
5938;DHT22;2994;51.220;4.412;2023-07-13T13:38:18;24.35;55.13
5938;DHT22;2994;51.220;4.412;2023-07-13T13:40:45;24.85;54.07
5938;DHT22;2994;51.220;4.412;2023-07-13T13:43:17;25.12;53.53
5938;DHT22;2994;51.220;4.412;2023-07-13T13:45:44;25.58;51.89
5938;DHT22;2994;51.220;4.412;2023-07-13T13:48:18;25.30;52.20
5938;DHT22;2994;51.220;4.412;2023-07-13T13:50:44;25.13;53.30
5938;DHT22;2994;51.220;4.412;2023-07-13T13:53:11;25.23;53.08
5938;DHT22;2994;51.220;4.412;2023-07-13T13:55:38;25.10;53.43
5938;DHT22;2994;51.220;4.412;2023-07-13T13:58:03;24.93;53.46
5938;DHT22;2994;51.220;4.412;2023-07-13T14:00:29;24.97;52.95
5938;DHT22;2994;51.220;4.412;2023-07-13T14:02:55;24.88;53.46
5938;DHT22;2994;51.220;4.412;2023-07-13T14:05:23;24.82;53.40
5938;DHT22;2994;51.220;4.412;2023-07-13T14:07:51;24.72;53.68
5938;DHT22;2994;51.220;4.412;2023-07-13T14:10:19;25.34;52.56
5938;DHT22;2994;51.220;4.412;2023-07-13T14:12:50;25.34;52.48
5938;DHT22;2994;51.220;4.412;2023-07-13T14:15:29;25.06;52.33
5938;DHT22;2994;51.220;4.412;2023-07-13T14:17:56;24.86;52.51
5938;DHT22;2994;51.220;4.412;2023-07-13T14:20:24;24.91;52.65
5938;DHT22;2994;51.220;4.412;2023-07-13T14:22:51;24.87;52.41
5938;DHT22;2994;51.220;4.412;2023-07-13T14:25:19;24.83;52.36
5938;DHT22;2994;51.220;4.412;2023-07-13T14:27:45;24.72;52.82
5938;DHT22;2994;51.220;4.412;2023-07-13T14:30:17;24.75;52.61
5938;DHT22;2994;51.220;4.412;2023-07-13T14:32:43;25.37;50.69
5938;DHT22;2994;51.220;4.412;2023-07-13T14:35:17;25.53;50.37
5938;DHT22;2994;51.220;4.412;2023-07-13T14:37:44;25.66;49.60
5938;DHT22;2994;51.220;4.412;2023-07-13T14:40:17;25.51;50.24
5938;DHT22;2994;51.220;4.412;2023-07-13T14:42:44;25.63;50.04
5938;DHT22;2994;51.220;4.412;2023-07-13T14:45:14;25.67;49.47
5938;DHT22;2994;51.220;4.412;2023-07-13T14:47:40;25.99;48.84
5938;DHT22;2994;51.220;4.412;2023-07-13T14:50:16;26.58;47.76
5938;DHT22;2994;51.220;4.412;2023-07-13T14:52:42;26.90;47.12
5938;DHT22;2994;51.220;4.412;2023-07-13T14:55:13;26.93;47.15
5938;DHT22;2994;51.220;4.412;2023-07-13T14:57:39;26.61;46.86
5938;DHT22;2994;51.220;4.412;2023-07-13T15:00:13;26.37;47.40
5938;DHT22;2994;51.220;4.412;2023-07-13T15:02:39;26.15;47.76
5938;DHT22;2994;51.220;4.412;2023-07-13T15:05:15;25.93;47.96
5938;DHT22;2994;51.220;4.412;2023-07-13T15:07:41;25.74;48.54
5938;DHT22;2994;51.220;4.412;2023-07-13T15:10:28;25.62;49.41
5938;DHT22;2994;51.220;4.412;2023-07-13T15:13:16;25.46;48.78
5938;DHT22;2994;51.220;4.412;2023-07-13T15:15:45;25.42;48.72
5938;DHT22;2994;51.220;4.412;2023-07-13T15:18:11;25.57;48.71
5938;DHT22;2994;51.220;4.412;2023-07-13T15:20:38;26.15;48.07
5938;DHT22;2994;51.220;4.412;2023-07-13T15:23:04;26.47;47.17
5938;DHT22;2994;51.220;4.412;2023-07-13T15:25:31;27.05;46.83
5938;DHT22;2994;51.220;4.412;2023-07-13T15:27:58;27.14;45.94
5938;DHT22;2994;51.220;4.412;2023-07-13T15:30:27;27.07;45.20
5938;DHT22;2994;51.220;4.412;2023-07-13T15:32:54;27.10;44.90
5938;DHT22;2994;51.220;4.412;2023-07-13T15:35:24;27.45;43.86
5938;DHT22;2994;51.220;4.412;2023-07-13T15:37:50;27.24;44.01
5938;DHT22;2994;51.220;4.412;2023-07-13T15:40:16;26.46;45.03
5938;DHT22;2994;51.220;4.412;2023-07-13T15:42:43;26.43;46.06
5938;DHT22;2994;51.220;4.412;2023-07-13T15:45:18;26.26;45.99
5938;DHT22;2994;51.220;4.412;2023-07-13T15:47:47;26.04;46.34
5938;DHT22;2994;51.220;4.412;2023-07-13T15:50:15;26.04;47.79
5938;DHT22;2994;51.220;4.412;2023-07-13T15:52:42;25.36;47.34
5938;DHT22;2994;51.220;4.412;2023-07-13T15:55:12;26.99;43.21
5938;DHT22;2994;51.220;4.412;2023-07-13T15:57:49;26.51;46.43
5938;DHT22;2994;51.220;4.412;2023-07-13T16:00:22;26.23;46.14
5938;DHT22;2994;51.220;4.412;2023-07-13T16:02:49;26.10;47.05
5938;DHT22;2994;51.220;4.412;2023-07-13T16:05:16;25.96;46.89
5938;DHT22;2994;51.220;4.412;2023-07-13T16:07:43;25.88;47.19
5938;DHT22;2994;51.220;4.412;2023-07-13T16:10:30;25.91;47.11
5938;DHT22;2994;51.220;4.412;2023-07-13T16:12:56;26.10;46.13
5938;DHT22;2994;51.220;4.412;2023-07-13T16:15:22;26.39;45.84
5938;DHT22;2994;51.220;4.412;2023-07-13T16:17:48;26.38;45.49
5938;DHT22;2994;51.220;4.412;2023-07-13T16:20:15;26.23;46.25
5938;DHT22;2994;51.220;4.412;2023-07-13T16:22:45;25.33;49.09
5938;DHT22;2994;51.220;4.412;2023-07-13T16:25:22;25.92;48.21
5938;DHT22;2994;51.220;4.412;2023-07-13T16:27:49;25.67;48.52
5938;DHT22;2994;51.220;4.412;2023-07-13T16:32:43;25.74;49.94
5938;DHT22;2994;51.220;4.412;2023-07-13T16:35:09;25.49;49.39
5938;DHT22;2994;51.220;4.412;2023-07-13T16:37:35;25.58;49.95
5938;DHT22;2994;51.220;4.412;2023-07-13T16:40:01;25.69;49.31
5938;DHT22;2994;51.220;4.412;2023-07-13T16:42:27;25.80;50.05
5938;DHT22;2994;51.220;4.412;2023-07-13T16:44:52;25.79;49.69
5938;DHT22;2994;51.220;4.412;2023-07-13T16:47:19;25.81;50.32